createdAt,value
2019-06-08T00:00:55.521Z,16.70
2019-06-08T00:03:44.912Z,16.60
2019-06-08T00:06:35.389Z,16.50
2019-06-08T00:09:25.840Z,16.50
2019-06-08T00:12:16.878Z,16.40
2019-06-08T00:15:09.949Z,16.40
2019-06-08T00:17:59.620Z,16.30
2019-06-08T00:20:49.690Z,16.20
2019-06-08T00:23:39.919Z,16.20
2019-06-08T00:26:29.879Z,16.10
2019-06-08T00:29:20.505Z,16.10
2019-06-08T00:32:10.440Z,16.00
2019-06-08T00:35:00.559Z,16.00
2019-06-08T00:37:51.153Z,16.00
2019-06-08T00:40:42.335Z,15.90
2019-06-08T00:43:32.559Z,15.90
2019-06-08T00:46:23.627Z,15.90
2019-06-08T00:49:14.154Z,15.80
2019-06-08T00:52:03.696Z,15.70
2019-06-08T00:54:54.159Z,15.60
2019-06-08T00:57:44.514Z,15.60
2019-06-08T01:00:34.965Z,15.50
2019-06-08T01:03:25.810Z,15.50
2019-06-08T01:06:15.865Z,15.40
2019-06-08T01:09:07.280Z,15.40
2019-06-08T01:11:57.089Z,15.30
2019-06-08T01:14:46.923Z,15.30
2019-06-08T01:17:37.360Z,15.20
2019-06-08T01:20:27.655Z,15.10
2019-06-08T01:23:17.840Z,15.00
2019-06-08T01:26:07.184Z,15.00
2019-06-08T01:28:57.201Z,14.90
2019-06-08T01:31:47.280Z,14.90
2019-06-08T01:34:37.639Z,14.90
2019-06-08T01:37:29.062Z,14.80
2019-06-08T01:40:19.279Z,14.80
2019-06-08T01:43:09.864Z,14.70
2019-06-08T01:46:00.474Z,14.70
2019-06-08T01:48:50.200Z,14.60
2019-06-08T01:51:40.135Z,14.60
2019-06-08T01:54:31.544Z,14.60
2019-06-08T02:01:18.146Z,14.50
2019-06-08T02:04:08.712Z,14.50
2019-06-08T02:06:59.457Z,14.50
2019-06-08T02:09:49.512Z,14.50
2019-06-08T02:12:39.242Z,14.50
2019-06-08T02:15:31.797Z,14.50
2019-06-08T02:18:35.518Z,14.50
2019-06-08T02:21:13.462Z,14.50
2019-06-08T02:24:03.086Z,14.50
2019-06-08T02:26:53.309Z,14.50
2019-06-08T02:29:43.000Z,14.50
2019-06-08T02:32:35.009Z,14.60
2019-06-08T02:35:25.833Z,14.60
2019-06-08T02:38:17.356Z,14.60
2019-06-08T02:41:08.451Z,14.60
2019-06-08T02:43:58.799Z,14.60
2019-06-08T02:46:49.451Z,14.60
2019-06-08T02:49:39.878Z,14.60
2019-06-08T02:52:31.912Z,14.60
2019-06-08T02:55:23.308Z,14.60
2019-06-08T02:58:13.794Z,14.60
2019-06-08T03:01:05.053Z,14.60
2019-06-08T03:03:56.983Z,14.60
2019-06-08T03:06:48.400Z,14.60
2019-06-08T03:09:41.287Z,14.60
2019-06-08T03:12:32.967Z,14.60
2019-06-08T03:15:31.808Z,14.60
2019-06-08T03:18:22.156Z,14.60
2019-06-08T03:21:12.081Z,14.70
2019-06-08T03:24:02.446Z,14.70
2019-06-08T03:26:51.970Z,14.80
2019-06-08T03:29:43.850Z,14.90
2019-06-08T03:32:37.379Z,15.00
2019-06-08T03:35:25.512Z,15.10
2019-06-08T03:38:15.753Z,15.30
2019-06-08T03:41:05.998Z,15.50
2019-06-08T03:43:55.945Z,15.70
2019-06-08T03:46:46.481Z,15.90
2019-06-08T03:49:47.559Z,16.20
2019-06-08T03:52:29.437Z,16.50
2019-06-08T03:55:19.532Z,16.70
2019-06-08T03:58:10.534Z,17.10
2019-06-08T04:01:01.513Z,17.40
2019-06-08T04:03:51.883Z,17.70
2019-06-08T04:06:43.560Z,18.00
2019-06-08T04:09:33.342Z,18.40
2019-06-08T04:12:23.558Z,18.60
2019-06-08T04:15:13.589Z,18.90
2019-06-08T04:18:03.315Z,19.10
2019-06-08T04:20:53.835Z,19.20
2019-06-08T04:23:45.400Z,19.30
2019-06-08T04:26:38.473Z,19.30
2019-06-08T04:29:28.492Z,19.40
2019-06-08T04:32:18.718Z,19.40
2019-06-08T04:35:09.835Z,19.50
2019-06-08T04:37:59.782Z,19.60
2019-06-08T04:40:50.184Z,19.60
2019-06-08T04:43:42.842Z,19.70
2019-06-08T04:46:33.703Z,19.70
2019-06-08T04:49:23.713Z,19.70
2019-06-08T04:52:13.803Z,19.70
2019-06-08T04:55:03.473Z,19.80
2019-06-08T04:57:54.357Z,19.80
2019-06-08T05:00:46.212Z,19.80
2019-06-08T05:03:36.071Z,19.80
2019-06-08T05:06:26.422Z,19.80
2019-06-08T05:09:17.212Z,19.80
2019-06-08T05:12:08.072Z,19.70
2019-06-08T05:14:58.141Z,19.60
2019-06-08T05:17:47.707Z,19.60
2019-06-08T05:20:40.961Z,19.60
2019-06-08T05:23:29.242Z,19.60
2019-06-08T05:26:19.271Z,19.60
2019-06-08T05:29:09.411Z,19.60
2019-06-08T05:32:00.716Z,19.60
2019-06-08T05:34:50.966Z,19.60
2019-06-08T05:37:41.626Z,19.60
2019-06-08T05:40:31.720Z,19.60
2019-06-08T05:43:21.677Z,19.60
2019-06-08T05:46:12.105Z,19.60
2019-06-08T05:49:02.178Z,19.60
2019-06-08T05:51:52.392Z,19.70
2019-06-08T05:54:43.750Z,19.80
2019-06-08T05:57:34.056Z,19.80
2019-06-08T06:00:25.297Z,19.90
2019-06-08T06:03:15.129Z,19.90
2019-06-08T06:06:05.896Z,19.90
2019-06-08T06:08:55.825Z,20.00
2019-06-08T06:11:46.842Z,20.00
2019-06-08T06:14:37.055Z,20.10
2019-06-08T06:17:26.817Z,20.20
2019-06-08T06:20:17.086Z,20.20
2019-06-08T06:23:07.592Z,20.30
2019-06-08T06:25:57.457Z,20.30
2019-06-08T06:28:47.637Z,20.40
2019-06-08T06:31:37.694Z,20.40
2019-06-08T06:34:28.028Z,20.50
2019-06-08T06:37:18.597Z,20.60
2019-06-08T06:40:09.578Z,20.60
2019-06-08T06:42:59.918Z,20.80
2019-06-08T06:45:50.011Z,20.80
2019-06-08T06:48:40.559Z,20.90
2019-06-08T06:51:33.790Z,21.00
2019-06-08T06:54:22.332Z,21.00
2019-06-08T06:57:11.957Z,21.10
2019-06-08T07:00:02.001Z,21.10
2019-06-08T07:02:53.924Z,21.20
2019-06-08T07:05:43.779Z,21.20
2019-06-08T07:08:34.122Z,21.20
2019-06-08T07:11:24.232Z,21.20
2019-06-08T07:14:15.772Z,21.30
2019-06-08T07:17:06.312Z,21.30
2019-06-08T07:19:56.039Z,21.50
2019-06-08T07:22:46.071Z,21.40
2019-06-08T07:25:36.116Z,21.50
2019-06-08T07:28:26.178Z,21.60
2019-06-08T07:31:16.552Z,21.60
2019-06-08T07:34:06.351Z,21.60
2019-06-08T07:36:57.351Z,21.70
2019-06-08T07:39:48.869Z,21.80
2019-06-08T07:42:40.526Z,21.90
2019-06-08T07:45:30.312Z,22.00
2019-06-08T07:48:20.872Z,22.10
2019-06-08T07:51:11.257Z,22.10
2019-06-08T07:54:00.871Z,22.10
2019-06-08T07:56:51.509Z,22.20
2019-06-08T07:59:42.152Z,22.30
2019-06-08T08:02:32.704Z,22.40
2019-06-08T08:05:23.008Z,22.50
2019-06-08T08:08:13.512Z,22.60
2019-06-08T08:11:04.412Z,22.60
2019-06-08T08:13:54.859Z,22.60
2019-06-08T08:16:45.831Z,22.70
2019-06-08T08:19:36.712Z,22.70
2019-06-08T08:22:29.482Z,22.80
2019-06-08T08:25:19.126Z,22.90
2019-06-08T08:28:09.223Z,23.10
2019-06-08T08:31:01.781Z,23.20
2019-06-08T08:33:52.551Z,23.40
2019-06-08T08:36:44.326Z,23.50
2019-06-08T08:39:37.468Z,23.60
2019-06-08T08:42:27.097Z,23.70
2019-06-08T08:45:18.381Z,23.70
2019-06-08T08:48:21.467Z,23.70
2019-06-08T08:51:03.274Z,23.70
2019-06-08T08:53:55.848Z,23.70
2019-06-08T08:56:44.026Z,23.80
2019-06-08T08:59:35.117Z,23.70
2019-06-08T09:02:27.616Z,23.90
2019-06-08T09:05:18.109Z,24.00
2019-06-08T09:08:08.795Z,24.10
2019-06-08T09:11:01.985Z,24.20
2019-06-08T09:13:51.915Z,24.30
2019-06-08T09:16:42.069Z,24.40
2019-06-08T09:19:31.697Z,24.60
2019-06-08T09:22:21.218Z,24.70
2019-06-08T09:25:13.451Z,25.00
2019-06-08T09:28:04.794Z,25.20
2019-06-08T09:30:56.767Z,25.40
2019-06-08T09:33:53.405Z,25.70
2019-06-08T09:36:40.692Z,25.90
2019-06-08T09:39:32.543Z,26.50
2019-06-08T09:42:22.907Z,27.40
2019-06-08T09:45:13.038Z,28.80
2019-06-08T09:48:05.554Z,30.00
2019-06-08T09:50:55.146Z,30.70
2019-06-08T09:53:47.503Z,31.50
2019-06-08T09:56:37.956Z,32.20
2019-06-08T09:59:28.592Z,32.80
2019-06-08T10:02:18.947Z,33.50
2019-06-08T10:05:08.620Z,34.50
2019-06-08T10:08:02.123Z,34.80
2019-06-08T10:10:51.916Z,34.80
2019-06-08T10:13:43.414Z,35.30
2019-06-08T10:16:34.964Z,36.10
2019-06-08T10:19:24.883Z,35.60
2019-06-08T10:22:14.838Z,35.00
2019-06-08T10:25:08.063Z,34.80
2019-06-08T10:27:59.508Z,34.60
2019-06-08T10:30:48.485Z,34.50
2019-06-08T10:33:40.624Z,34.50
2019-06-08T10:36:30.814Z,34.70
2019-06-08T10:39:21.247Z,35.20
2019-06-08T10:42:11.515Z,35.70
2019-06-08T10:45:07.602Z,36.60
2019-06-08T10:47:53.037Z,37.00
2019-06-08T10:50:42.989Z,37.20
2019-06-08T10:53:46.449Z,35.40
2019-06-08T10:56:24.821Z,33.10
2019-06-08T10:59:14.505Z,31.10
2019-06-08T11:02:07.372Z,29.50
2019-06-08T11:04:58.779Z,28.40
2019-06-08T11:07:48.012Z,27.60
2019-06-08T11:10:38.497Z,27.10
2019-06-08T11:13:29.762Z,26.70
2019-06-08T11:16:19.919Z,26.50
2019-06-08T11:19:12.971Z,26.30
2019-06-08T11:22:05.018Z,26.30
2019-06-08T11:24:52.561Z,26.20
2019-06-08T11:27:42.413Z,26.30
2019-06-08T11:30:34.025Z,26.20
2019-06-08T11:33:24.714Z,26.00
2019-06-08T11:36:15.132Z,26.00
2019-06-08T11:39:06.807Z,26.00
2019-06-08T11:41:58.801Z,26.00
2019-06-08T11:44:51.025Z,26.00
2019-06-08T11:47:39.989Z,25.90
2019-06-08T11:50:42.191Z,25.90
2019-06-08T11:53:31.292Z,26.10
2019-06-08T11:56:23.592Z,26.30
2019-06-08T11:59:14.406Z,26.50
2019-06-08T12:02:09.024Z,26.70
2019-06-08T12:04:57.262Z,26.80
2019-06-08T12:07:48.126Z,26.90
2019-06-08T12:10:41.081Z,26.80
2019-06-08T12:13:29.357Z,26.80
2019-06-08T12:16:22.181Z,26.90
2019-06-08T12:19:15.114Z,26.90
2019-06-08T12:22:02.136Z,26.90
2019-06-08T12:24:52.552Z,26.90
2019-06-08T12:27:43.048Z,26.80
2019-06-08T12:30:32.913Z,26.80
2019-06-08T12:33:23.382Z,26.90
2019-06-08T12:36:15.364Z,26.90
2019-06-08T12:39:05.921Z,27.00
2019-06-08T12:41:58.196Z,27.00
2019-06-08T12:44:47.650Z,27.10
2019-06-08T12:47:38.327Z,26.90
2019-06-08T12:50:28.289Z,26.70
2019-06-08T12:53:22.632Z,26.80
2019-06-08T12:56:12.062Z,26.80
2019-06-08T12:59:04.083Z,26.80
2019-06-08T13:01:53.697Z,26.80
2019-06-08T13:04:43.806Z,26.80
2019-06-08T13:07:34.185Z,26.90
2019-06-08T13:10:24.408Z,27.10
2019-06-08T13:13:14.637Z,27.30
2019-06-08T13:16:04.537Z,27.30
2019-06-08T13:18:54.051Z,27.30
2019-06-08T13:21:43.712Z,27.20
2019-06-08T13:24:33.543Z,27.30
2019-06-08T13:27:23.357Z,27.40
2019-06-08T13:30:18.240Z,27.50
2019-06-08T13:33:07.923Z,27.50
2019-06-08T13:35:58.023Z,27.60
2019-06-08T13:38:48.035Z,27.70
2019-06-08T13:41:38.362Z,27.90
2019-06-08T13:44:28.382Z,27.90
2019-06-08T13:47:18.913Z,28.10
2019-06-08T13:50:11.101Z,28.10
2019-06-08T13:53:01.426Z,28.10
2019-06-08T13:55:56.499Z,28.00
2019-06-08T13:58:42.352Z,28.20
2019-06-08T14:01:31.897Z,28.30
2019-06-08T14:04:22.521Z,28.50
2019-06-08T14:07:12.366Z,28.50
2019-06-08T14:10:03.309Z,28.50
2019-06-08T14:12:52.875Z,28.60
2019-06-08T14:15:43.291Z,28.70
2019-06-08T14:18:34.281Z,28.70
2019-06-08T14:22:40.223Z,28.90
2019-06-08T14:25:46.611Z,29.10
2019-06-08T14:28:23.284Z,29.30
2019-06-08T14:31:14.390Z,29.50
2019-06-08T14:34:04.447Z,29.50
2019-06-08T14:36:54.792Z,29.30
2019-06-08T14:39:44.711Z,29.20
2019-06-08T14:42:34.953Z,29.10
2019-06-08T14:45:27.804Z,29.10
2019-06-08T14:48:18.957Z,29.20
2019-06-08T14:51:08.744Z,29.00
2019-06-08T14:53:59.211Z,29.00
2019-06-08T14:56:49.018Z,29.00
2019-06-08T14:59:40.317Z,28.90
2019-06-08T15:02:31.476Z,28.90
2019-06-08T15:05:21.568Z,29.10
2019-06-08T15:08:11.798Z,29.20
2019-06-08T15:11:01.838Z,29.20
2019-06-08T15:13:51.883Z,29.30
2019-06-08T15:16:42.012Z,29.40
2019-06-08T15:19:32.591Z,29.30
2019-06-08T15:22:22.367Z,29.30
2019-06-08T15:25:12.590Z,29.50
2019-06-08T15:28:02.970Z,29.60
2019-06-08T15:30:52.637Z,29.70
2019-06-08T15:33:43.708Z,29.70
2019-06-08T15:36:33.992Z,29.60
2019-06-08T15:39:28.464Z,29.50
2019-06-08T15:42:19.712Z,29.30
2019-06-08T15:45:10.052Z,29.50
2019-06-08T15:48:00.707Z,29.50
2019-06-08T15:50:50.477Z,29.60
2019-06-08T15:53:40.656Z,29.50
2019-06-08T15:56:43.182Z,29.60
2019-06-08T15:59:23.167Z,29.80
2019-06-08T16:02:13.832Z,30.10
2019-06-08T16:05:04.074Z,30.10
2019-06-08T16:07:54.327Z,30.10
2019-06-08T16:10:44.562Z,30.10
2019-06-08T16:13:34.764Z,30.10
2019-06-08T16:16:25.340Z,30.40
2019-06-08T16:19:15.872Z,31.00
2019-06-08T16:22:06.792Z,31.50
2019-06-08T16:24:56.705Z,31.90
2019-06-08T16:27:46.972Z,32.20
2019-06-08T16:30:36.685Z,32.50
2019-06-08T16:33:29.255Z,32.60
2019-06-08T16:36:18.198Z,32.60
2019-06-08T16:39:09.511Z,32.40
2019-06-08T16:41:59.342Z,32.30
2019-06-08T16:44:50.219Z,32.10
2019-06-08T16:47:43.071Z,32.00
2019-06-08T16:50:32.294Z,31.80
2019-06-08T16:53:23.097Z,31.80
2019-06-08T16:56:14.271Z,31.80
2019-06-08T16:59:04.287Z,31.90
2019-06-08T17:01:54.637Z,31.90
2019-06-08T17:04:45.217Z,32.00
2019-06-08T17:07:35.586Z,32.00
2019-06-08T17:10:25.076Z,31.80
2019-06-08T17:13:18.006Z,31.80
2019-06-08T17:16:10.629Z,31.50
2019-06-08T17:19:00.620Z,31.20
2019-06-08T17:21:50.989Z,31.20
2019-06-08T17:24:40.890Z,30.80
2019-06-08T17:27:30.826Z,30.20
2019-06-08T17:30:21.847Z,29.60
2019-06-08T17:33:12.216Z,28.40
2019-06-08T17:36:02.505Z,27.70
2019-06-08T17:38:52.270Z,27.50
2019-06-08T17:41:42.685Z,27.30
2019-06-08T17:44:34.863Z,27.30
2019-06-08T17:47:26.794Z,27.20
2019-06-08T17:50:18.158Z,27.10
2019-06-08T17:53:09.253Z,26.50
2019-06-08T17:55:59.132Z,25.90
2019-06-08T17:58:49.526Z,25.30
2019-06-08T18:01:39.913Z,24.90
2019-06-08T18:04:30.594Z,24.50
2019-06-08T18:07:20.397Z,24.10
2019-06-08T18:10:12.271Z,23.80
2019-06-08T18:13:01.971Z,23.60
2019-06-08T18:15:53.032Z,23.30
2019-06-08T18:18:45.103Z,23.10
2019-06-08T18:21:38.823Z,22.90
2019-06-08T18:24:27.997Z,22.80
2019-06-08T18:27:18.576Z,22.60
2019-06-08T18:30:11.832Z,22.40
2019-06-08T18:33:00.893Z,22.30
2019-06-08T18:35:51.003Z,22.20
2019-06-08T18:38:42.957Z,22.00
2019-06-08T18:41:33.325Z,21.80
2019-06-08T18:44:23.645Z,21.60
2019-06-08T18:47:14.312Z,21.40
2019-06-08T18:50:04.957Z,21.20
2019-06-08T18:52:57.973Z,21.00
2019-06-08T18:55:50.001Z,20.90
2019-06-08T18:58:39.718Z,20.80
2019-06-08T19:01:29.661Z,20.60
2019-06-08T19:04:19.919Z,20.50
2019-06-08T19:07:09.368Z,20.40
2019-06-08T19:10:01.818Z,20.30
2019-06-08T19:13:00.966Z,20.20
2019-06-08T19:15:53.045Z,20.10
2019-06-08T19:18:48.052Z,19.90
2019-06-08T19:21:37.536Z,19.80
2019-06-08T19:24:29.323Z,19.60
2019-06-08T19:27:22.274Z,19.50
2019-06-08T19:30:12.300Z,19.50
2019-06-08T19:33:02.136Z,19.40
2019-06-08T19:35:53.883Z,19.30
2019-06-08T19:38:44.637Z,19.20
2019-06-08T19:41:37.635Z,19.10
2019-06-08T19:44:27.911Z,19.10
2019-06-08T19:47:18.826Z,19.00
2019-06-08T19:50:09.817Z,18.90
2019-06-08T19:52:59.642Z,18.80
2019-06-08T19:55:53.932Z,18.80
2019-06-08T19:58:55.056Z,18.70
2019-06-08T20:01:34.472Z,18.70
2019-06-08T20:04:24.392Z,18.60
2019-06-08T20:07:17.820Z,18.50
2019-06-08T20:10:09.461Z,18.40
2019-06-08T20:12:59.639Z,18.40
2019-06-08T20:15:55.116Z,18.40
2019-06-08T20:18:43.567Z,18.30
2019-06-08T20:21:33.432Z,18.20
2019-06-08T20:24:24.618Z,18.20
2019-06-08T20:27:17.222Z,18.10
2019-06-08T20:30:12.026Z,18.10
2019-06-08T20:33:00.548Z,18.00
2019-06-08T20:35:51.911Z,17.90
2019-06-08T20:38:44.779Z,17.80
2019-06-08T20:41:37.452Z,17.70
2019-06-08T20:44:29.916Z,17.60
2019-06-08T20:47:20.660Z,17.60
2019-06-08T20:50:12.241Z,17.50
2019-06-08T20:53:02.797Z,17.50
2019-06-08T20:55:54.018Z,17.50
2019-06-08T20:58:45.379Z,17.60
2019-06-08T21:01:37.037Z,17.70
2019-06-08T21:04:27.645Z,17.70
2019-06-08T21:07:18.802Z,17.70
2019-06-08T21:10:10.331Z,17.80
2019-06-08T21:13:00.686Z,17.80
2019-06-08T21:15:55.715Z,17.80
2019-06-08T21:18:44.689Z,17.90
2019-06-08T21:21:37.555Z,17.90
2019-06-08T21:24:28.093Z,17.90
2019-06-08T21:27:18.330Z,17.90
2019-06-08T21:30:20.680Z,17.90
2019-06-08T21:33:01.044Z,18.00
2019-06-08T21:35:52.889Z,18.00
2019-06-08T21:38:42.640Z,18.00
2019-06-08T21:41:32.531Z,18.10
2019-06-08T21:44:22.481Z,18.10
2019-06-08T21:47:15.266Z,18.10
2019-06-08T21:50:11.605Z,18.10
2019-06-08T21:53:01.512Z,18.10
2019-06-08T21:55:52.100Z,18.10
2019-06-08T21:58:43.292Z,18.20
2019-06-08T22:01:33.863Z,18.20
2019-06-08T22:04:24.740Z,18.20
2019-06-08T22:07:14.992Z,18.20
2019-06-08T22:10:07.489Z,18.20
2019-06-08T22:13:00.936Z,18.20
2019-06-08T22:15:51.520Z,18.20
2019-06-08T22:18:41.156Z,18.20
2019-06-08T22:21:31.633Z,18.20
2019-06-08T22:24:21.416Z,18.10
2019-06-08T22:27:11.431Z,18.10
2019-06-08T22:30:09.562Z,18.20
2019-06-08T22:32:53.881Z,18.10
2019-06-08T22:35:44.246Z,18.10
2019-06-08T22:38:37.167Z,18.10
2019-06-08T22:41:27.953Z,18.10
2019-06-08T22:44:17.801Z,18.10
2019-06-08T22:47:08.240Z,18.10
2019-06-08T22:50:00.256Z,18.00
2019-06-08T22:52:51.287Z,18.00
2019-06-08T22:55:41.556Z,18.10
2019-06-08T22:58:31.751Z,18.00
2019-06-08T23:01:22.034Z,18.00
2019-06-08T23:04:12.056Z,17.90
2019-06-08T23:07:06.138Z,17.90
2019-06-08T23:09:59.243Z,17.90
2019-06-08T23:12:47.166Z,17.80
2019-06-08T23:15:38.075Z,17.90
2019-06-08T23:18:27.788Z,17.80
2019-06-08T23:21:18.045Z,17.80
2019-06-08T23:24:08.518Z,17.70
2019-06-08T23:26:58.631Z,17.70
2019-06-08T23:29:48.041Z,17.70
2019-06-08T23:32:38.765Z,17.70
2019-06-08T23:35:28.526Z,17.60
2019-06-08T23:38:17.996Z,17.60
2019-06-08T23:41:10.155Z,17.60
2019-06-08T23:44:00.007Z,17.60
2019-06-08T23:46:51.432Z,17.60
2019-06-08T23:49:41.544Z,17.60
2019-06-08T23:52:30.913Z,17.60
2019-06-08T23:55:21.032Z,17.60
2019-06-08T23:58:11.449Z,17.50
